createdAt,value
2017-03-06T00:00:07.801Z,985.49
2017-03-06T00:01:18.106Z,985.51
2017-03-06T00:02:28.804Z,985.53
2017-03-06T00:03:39.497Z,985.5
2017-03-06T00:04:50.199Z,985.51
2017-03-06T00:06:00.908Z,985.51
2017-03-06T00:07:11.600Z,985.56
2017-03-06T00:08:22.302Z,985.54
2017-03-06T00:09:32.985Z,985.55
2017-03-06T00:10:43.299Z,985.56
2017-03-06T00:11:53.588Z,985.55
2017-03-06T00:13:04.289Z,985.54
2017-03-06T00:14:15.006Z,985.57
2017-03-06T00:15:25.734Z,985.6
2017-03-06T00:16:36.431Z,985.58
2017-03-06T00:17:47.113Z,985.59
2017-03-06T00:18:57.811Z,985.6
2017-03-06T00:20:08.510Z,985.64
2017-03-06T00:21:19.208Z,985.63
2017-03-06T00:22:29.903Z,985.6
2017-03-06T00:23:40.607Z,985.58
2017-03-06T00:24:51.304Z,985.66
2017-03-06T00:26:02.006Z,985.64
2017-03-06T00:27:12.308Z,985.65
2017-03-06T00:28:22.596Z,985.61
2017-03-06T00:29:33.277Z,985.66
2017-03-06T00:30:43.985Z,985.65
2017-03-06T00:31:54.689Z,985.64
2017-03-06T00:33:04.984Z,985.66
2017-03-06T00:34:15.279Z,985.63
2017-03-06T00:35:25.995Z,985.64
2017-03-06T00:36:36.283Z,985.62
2017-03-06T00:37:46.980Z,985.6
2017-03-06T00:38:57.704Z,985.61
2017-03-06T00:40:08.403Z,985.6
2017-03-06T00:41:19.098Z,985.62
2017-03-06T00:42:29.798Z,985.64
2017-03-06T00:43:40.492Z,985.66
2017-03-06T00:44:51.191Z,985.66
2017-03-06T00:46:01.898Z,985.67
2017-03-06T00:47:12.589Z,985.67
2017-03-06T00:48:23.282Z,985.72
2017-03-06T00:49:33.973Z,985.74
2017-03-06T00:50:44.287Z,985.74
2017-03-06T00:51:54.988Z,985.78
2017-03-06T00:53:05.692Z,985.77
2017-03-06T00:54:15.978Z,985.77
2017-03-06T00:55:26.275Z,985.8
2017-03-06T00:56:36.978Z,985.79
2017-03-06T00:57:47.687Z,985.77
2017-03-06T00:58:58.374Z,985.82
2017-03-06T01:00:09.076Z,985.78
2017-03-06T01:01:19.790Z,985.76
2017-03-06T01:02:30.488Z,985.77
2017-03-06T01:03:40.791Z,985.78
2017-03-06T01:04:51.494Z,985.8
2017-03-06T01:06:02.226Z,985.77
2017-03-06T01:07:12.923Z,985.8
2017-03-06T01:08:23.623Z,985.84
2017-03-06T01:09:34.345Z,985.82
2017-03-06T01:10:45.055Z,985.8
2017-03-06T01:11:55.757Z,985.81
2017-03-06T01:13:06.444Z,985.83
2017-03-06T01:14:17.174Z,985.89
2017-03-06T01:15:27.500Z,985.88
2017-03-06T01:16:37.786Z,985.85
2017-03-06T01:17:48.083Z,985.87
2017-03-06T01:18:58.774Z,985.87
2017-03-06T01:20:09.487Z,985.87
2017-03-06T01:21:20.201Z,985.85
2017-03-06T01:22:30.509Z,985.9
2017-03-06T01:23:41.214Z,985.87
2017-03-06T01:24:51.906Z,985.94
2017-03-06T01:26:02.600Z,985.91
2017-03-06T01:27:13.290Z,985.92
2017-03-06T01:28:23.983Z,985.97
2017-03-06T01:29:34.667Z,985.91
2017-03-06T01:30:45.380Z,985.96
2017-03-06T01:31:55.694Z,986
2017-03-06T01:33:06.401Z,985.96
2017-03-06T01:34:17.081Z,985.95
2017-03-06T01:35:27.790Z,985.98
2017-03-06T01:36:38.486Z,985.99
2017-03-06T01:37:49.173Z,986.02
2017-03-06T01:38:59.893Z,986.02
2017-03-06T01:40:10.608Z,985.95
2017-03-06T01:41:21.291Z,985.95
2017-03-06T01:42:31.991Z,985.96
2017-03-06T01:43:42.682Z,985.92
2017-03-06T01:44:52.976Z,985.96
2017-03-06T01:46:03.675Z,985.93
2017-03-06T01:47:14.401Z,985.95
2017-03-06T01:48:25.080Z,985.98
2017-03-06T01:49:35.769Z,986.02
2017-03-06T01:50:46.463Z,986.02
2017-03-06T01:51:57.152Z,985.98
2017-03-06T01:53:07.853Z,986
2017-03-06T01:54:18.152Z,985.99
2017-03-06T01:55:28.862Z,986.03
2017-03-06T01:56:39.538Z,986.05
2017-03-06T01:57:50.229Z,986.05
2017-03-06T01:59:00.533Z,986.03
2017-03-06T02:00:11.231Z,986.04
2017-03-06T02:01:21.928Z,986.04
2017-03-06T02:02:32.626Z,986.05
2017-03-06T02:03:43.336Z,986.1
2017-03-06T02:04:54.028Z,986.1
2017-03-06T02:06:04.725Z,986.09
2017-03-06T02:07:15.041Z,986.07
2017-03-06T02:08:25.764Z,986.09
2017-03-06T02:09:36.470Z,986.13
2017-03-06T02:10:47.162Z,986.15
2017-03-06T02:11:57.870Z,986.13
2017-03-06T02:13:08.591Z,986.13
2017-03-06T02:14:19.281Z,986.14
2017-03-06T02:15:29.968Z,986.16
2017-03-06T02:16:40.670Z,986.15
2017-03-06T02:17:51.374Z,986.18
2017-03-06T02:19:02.089Z,986.21
2017-03-06T02:20:12.788Z,986.2
2017-03-06T02:21:23.485Z,986.19
2017-03-06T02:22:34.197Z,986.18
2017-03-06T02:23:44.906Z,986.21
2017-03-06T02:24:55.583Z,986.21
2017-03-06T02:26:06.290Z,986.23
2017-03-06T02:27:16.982Z,986.26
2017-03-06T02:28:27.285Z,986.28
2017-03-06T02:29:37.966Z,986.27
2017-03-06T02:30:48.680Z,986.3
2017-03-06T02:31:59.380Z,986.28
2017-03-06T02:33:10.068Z,986.3
2017-03-06T02:34:20.784Z,986.26
2017-03-06T02:35:31.503Z,986.32
2017-03-06T02:36:42.220Z,986.32
2017-03-06T02:37:52.547Z,986.37
2017-03-06T02:39:03.260Z,986.34
2017-03-06T02:40:13.967Z,986.39
2017-03-06T02:41:24.684Z,986.37
2017-03-06T02:42:34.605Z,986.39
2017-03-06T02:43:45.320Z,986.43
2017-03-06T02:44:56.008Z,986.4
2017-03-06T02:46:06.707Z,986.4
2017-03-06T02:47:17.431Z,986.46
2017-03-06T02:48:27.741Z,986.4
2017-03-06T02:49:38.443Z,986.46
2017-03-06T02:50:49.131Z,986.5
2017-03-06T02:51:59.824Z,986.49
2017-03-06T02:53:10.105Z,986.52
2017-03-06T02:54:20.800Z,986.48
2017-03-06T02:55:31.513Z,986.51
2017-03-06T02:56:41.814Z,986.58
2017-03-06T02:57:52.534Z,986.59
2017-03-06T02:59:03.227Z,986.54
2017-03-06T03:00:13.924Z,986.59
2017-03-06T03:01:24.211Z,986.6
2017-03-06T03:02:34.925Z,986.61
2017-03-06T03:03:45.625Z,986.63
2017-03-06T03:04:56.354Z,986.68
2017-03-06T03:06:07.079Z,986.7
2017-03-06T03:07:17.785Z,986.68
2017-03-06T03:08:28.533Z,986.68
2017-03-06T03:09:39.231Z,986.71
2017-03-06T03:10:49.937Z,986.72
2017-03-06T03:12:00.666Z,986.69
2017-03-06T03:13:11.364Z,986.68
2017-03-06T03:14:22.078Z,986.7
2017-03-06T03:15:32.773Z,986.77
2017-03-06T03:16:43.466Z,986.73
2017-03-06T03:17:53.752Z,986.72
2017-03-06T03:19:04.428Z,986.76
2017-03-06T03:20:15.126Z,986.8
2017-03-06T03:21:25.840Z,986.76
2017-03-06T03:22:36.551Z,986.77
2017-03-06T03:23:47.241Z,986.81
2017-03-06T03:24:57.932Z,986.82
2017-03-06T03:26:08.640Z,986.83
2017-03-06T03:27:19.337Z,986.8
2017-03-06T03:28:30.037Z,986.76
2017-03-06T03:29:40.756Z,986.83
2017-03-06T03:30:51.442Z,986.78
2017-03-06T03:32:02.141Z,986.8
2017-03-06T03:33:12.837Z,986.79
2017-03-06T03:34:23.643Z,986.81
2017-03-06T03:35:34.339Z,986.84
2017-03-06T03:36:45.050Z,986.83
2017-03-06T03:37:55.751Z,986.85
2017-03-06T03:39:06.482Z,986.87
2017-03-06T03:40:17.199Z,986.91
2017-03-06T03:41:27.883Z,986.91
2017-03-06T03:42:38.572Z,986.94
2017-03-06T03:43:49.279Z,986.96
2017-03-06T03:44:59.983Z,986.94
2017-03-06T03:46:10.683Z,986.94
2017-03-06T03:47:21.419Z,986.99
2017-03-06T03:48:32.122Z,987.02
2017-03-06T03:49:42.429Z,987.01
2017-03-06T03:50:52.737Z,987.06
2017-03-06T03:52:03.426Z,987.08
2017-03-06T03:53:14.130Z,987.11
2017-03-06T03:54:24.821Z,987.11
2017-03-06T03:55:35.505Z,987.09
2017-03-06T03:56:45.812Z,987.14
2017-03-06T03:57:56.114Z,987.09
2017-03-06T03:59:06.810Z,987.13
2017-03-06T04:00:17.520Z,987.15
2017-03-06T04:01:27.840Z,987.16
2017-03-06T04:02:38.536Z,987.17
2017-03-06T04:03:49.228Z,987.2
2017-03-06T04:04:59.911Z,987.16
2017-03-06T04:06:10.619Z,987.15
2017-03-06T04:07:21.304Z,987.16
2017-03-06T04:08:31.998Z,987.19
2017-03-06T04:09:42.697Z,987.19
2017-03-06T04:10:53.400Z,987.16
2017-03-06T04:12:04.087Z,987.14
2017-03-06T04:13:14.787Z,987.17
2017-03-06T04:14:25.485Z,987.23
2017-03-06T04:15:36.186Z,987.27
2017-03-06T04:16:46.876Z,987.24
2017-03-06T04:17:57.589Z,987.24
2017-03-06T04:19:08.295Z,987.25
2017-03-06T04:20:19.002Z,987.24
2017-03-06T04:21:29.321Z,987.24
2017-03-06T04:22:40.024Z,987.26
2017-03-06T04:23:50.731Z,987.29
2017-03-06T04:25:01.448Z,987.29
2017-03-06T04:26:12.191Z,987.36
2017-03-06T04:27:22.879Z,987.31
2017-03-06T04:28:33.580Z,987.35
2017-03-06T04:29:43.879Z,987.3
2017-03-06T04:30:54.596Z,987.35
2017-03-06T04:32:04.888Z,987.36
2017-03-06T04:33:14.797Z,987.37
2017-03-06T04:34:25.507Z,987.39
2017-03-06T04:35:36.219Z,987.37
2017-03-06T04:36:46.911Z,987.4
2017-03-06T04:37:57.634Z,987.34
2017-03-06T04:39:07.936Z,987.41
2017-03-06T04:40:18.625Z,987.41
2017-03-06T04:41:29.301Z,987.41
2017-03-06T04:42:39.600Z,987.42
2017-03-06T04:43:50.305Z,987.45
2017-03-06T04:45:01.000Z,987.46
2017-03-06T04:46:11.676Z,987.45
2017-03-06T04:47:22.362Z,987.46
2017-03-06T04:48:32.650Z,987.5
2017-03-06T04:49:43.353Z,987.5
2017-03-06T04:50:54.353Z,987.48
2017-03-06T04:52:05.058Z,987.49
2017-03-06T04:53:15.752Z,987.53
2017-03-06T04:54:26.443Z,987.52
2017-03-06T04:55:37.140Z,987.52
2017-03-06T04:56:47.854Z,987.55
2017-03-06T04:57:58.549Z,987.51
2017-03-06T04:59:09.243Z,987.58
2017-03-06T05:00:19.532Z,987.59
2017-03-06T05:01:30.237Z,987.56
2017-03-06T05:02:40.930Z,987.63
2017-03-06T05:03:51.630Z,987.66
2017-03-06T05:05:02.333Z,987.68
2017-03-06T05:06:13.031Z,987.71
2017-03-06T05:07:23.325Z,987.75
2017-03-06T05:08:34.063Z,987.78
2017-03-06T05:09:44.351Z,987.84
2017-03-06T05:10:55.064Z,987.79
2017-03-06T05:12:05.753Z,987.8
2017-03-06T05:13:16.041Z,987.83
2017-03-06T05:14:27.152Z,987.83
2017-03-06T05:15:37.858Z,987.84
2017-03-06T05:16:48.181Z,987.83
2017-03-06T05:17:58.882Z,987.87
2017-03-06T05:19:09.178Z,987.87
2017-03-06T05:20:19.880Z,987.87
2017-03-06T05:21:30.617Z,987.84
2017-03-06T05:22:41.307Z,987.88
2017-03-06T05:23:52.003Z,987.86
2017-03-06T05:25:02.702Z,987.85
2017-03-06T05:26:13.016Z,987.86
2017-03-06T05:27:23.721Z,987.92
2017-03-06T05:28:34.422Z,987.87
2017-03-06T05:29:45.121Z,987.95
2017-03-06T05:30:55.424Z,987.96
2017-03-06T05:32:06.118Z,988.04
2017-03-06T05:33:16.860Z,988.05
2017-03-06T05:34:27.546Z,988.03
2017-03-06T05:35:38.252Z,988.07
2017-03-06T05:36:48.956Z,988.08
2017-03-06T05:37:59.657Z,988.08
2017-03-06T05:39:10.385Z,988.07
2017-03-06T05:40:20.681Z,988.1
2017-03-06T05:41:31.387Z,988.1
2017-03-06T05:42:41.700Z,988.14
2017-03-06T05:43:52.412Z,988.21
2017-03-06T05:45:03.109Z,988.2
2017-03-06T05:46:13.809Z,988.16
2017-03-06T05:47:24.506Z,988.16
2017-03-06T05:48:35.199Z,988.17
2017-03-06T05:49:45.925Z,988.22
2017-03-06T05:50:56.618Z,988.22
2017-03-06T05:52:07.328Z,988.28
2017-03-06T05:53:18.038Z,988.27
2017-03-06T05:54:28.732Z,988.23
2017-03-06T05:55:39.441Z,988.25
2017-03-06T05:56:50.133Z,988.23
2017-03-06T05:58:00.837Z,988.25
2017-03-06T05:59:11.151Z,988.28
2017-03-06T06:00:21.846Z,988.28
2017-03-06T06:01:32.155Z,988.28
2017-03-06T06:02:42.471Z,988.33
2017-03-06T06:03:53.194Z,988.35
2017-03-06T06:05:03.892Z,988.37
2017-03-06T06:06:14.611Z,988.4
2017-03-06T06:07:24.922Z,988.4
2017-03-06T06:08:35.618Z,988.41
2017-03-06T06:09:46.316Z,988.42
2017-03-06T06:10:57.025Z,988.42
2017-03-06T06:12:07.730Z,988.4
2017-03-06T06:13:18.439Z,988.41
2017-03-06T06:14:29.162Z,988.42
2017-03-06T06:15:39.859Z,988.39
2017-03-06T06:16:50.546Z,988.43
2017-03-06T06:18:01.282Z,988.48
2017-03-06T06:19:12.001Z,988.48
2017-03-06T06:20:22.324Z,988.4
2017-03-06T06:21:32.610Z,988.47
2017-03-06T06:22:43.308Z,988.46
2017-03-06T06:23:53.994Z,988.45
2017-03-06T06:25:04.292Z,988.49
2017-03-06T06:26:14.591Z,988.48
2017-03-06T06:27:25.292Z,988.49
2017-03-06T06:28:35.999Z,988.52
2017-03-06T06:29:46.698Z,988.57
2017-03-06T06:30:57.405Z,988.54
2017-03-06T06:32:07.706Z,988.55
2017-03-06T06:33:18.007Z,988.5
2017-03-06T06:34:28.714Z,988.59
2017-03-06T06:35:39.429Z,988.62
2017-03-06T06:36:50.136Z,988.55
2017-03-06T06:38:00.826Z,988.57
2017-03-06T06:39:11.516Z,988.56
2017-03-06T06:40:21.843Z,988.54
2017-03-06T06:41:32.134Z,988.57
2017-03-06T06:42:42.827Z,988.58
2017-03-06T06:43:53.523Z,988.57
2017-03-06T06:45:04.220Z,988.65
2017-03-06T06:46:14.911Z,988.62
2017-03-06T06:47:25.208Z,988.67
2017-03-06T06:48:35.569Z,988.65
2017-03-06T06:49:45.891Z,988.67
2017-03-06T06:50:56.642Z,988.7
2017-03-06T06:52:07.338Z,988.66
2017-03-06T06:53:18.140Z,988.69
2017-03-06T06:54:28.847Z,988.72
2017-03-06T06:55:39.538Z,988.7
2017-03-06T06:56:50.389Z,988.67
2017-03-06T06:58:01.098Z,988.65
2017-03-06T06:59:11.811Z,988.65
2017-03-06T07:00:22.509Z,988.67
2017-03-06T07:01:33.240Z,988.72
2017-03-06T07:02:43.931Z,988.62
2017-03-06T07:03:54.615Z,988.69
2017-03-06T07:05:05.324Z,988.65
2017-03-06T07:06:16.039Z,988.66
2017-03-06T07:07:26.751Z,988.69
2017-03-06T07:08:37.459Z,988.67
2017-03-06T07:09:48.164Z,988.67
2017-03-06T07:10:58.858Z,988.71
2017-03-06T07:12:09.166Z,988.66
2017-03-06T07:13:19.882Z,988.72
2017-03-06T07:14:30.598Z,988.74
2017-03-06T07:15:41.299Z,988.75
2017-03-06T07:16:51.590Z,988.75
2017-03-06T07:18:02.290Z,988.75
2017-03-06T07:19:12.986Z,988.83
2017-03-06T07:20:23.278Z,988.82
2017-03-06T07:21:33.975Z,988.85
2017-03-06T07:22:44.673Z,988.88
2017-03-06T07:23:55.374Z,988.89
2017-03-06T07:25:06.066Z,988.91
2017-03-06T07:26:16.758Z,988.9
2017-03-06T07:27:27.509Z,988.92
2017-03-06T07:28:37.802Z,988.94
2017-03-06T07:29:48.514Z,989
2017-03-06T07:30:59.231Z,988.99
2017-03-06T07:32:09.927Z,989.02
2017-03-06T07:33:20.253Z,989.02
2017-03-06T07:34:30.948Z,988.99
2017-03-06T07:35:41.661Z,989.03
2017-03-06T07:36:52.358Z,989.03
2017-03-06T07:38:03.068Z,988.99
2017-03-06T07:39:13.755Z,989.03
2017-03-06T07:40:24.443Z,989.1
2017-03-06T07:41:35.150Z,989.06
2017-03-06T07:42:45.836Z,988.99
2017-03-06T07:43:56.526Z,988.97
2017-03-06T07:45:07.233Z,988.96
2017-03-06T07:46:17.935Z,988.95
2017-03-06T07:47:28.250Z,988.92
2017-03-06T07:48:38.944Z,989
2017-03-06T07:49:49.640Z,988.94
2017-03-06T07:50:59.938Z,988.95
2017-03-06T07:52:10.663Z,988.97
2017-03-06T07:53:21.347Z,989.01
2017-03-06T07:54:32.056Z,989
2017-03-06T07:55:42.748Z,988.95
2017-03-06T07:56:53.450Z,988.99
2017-03-06T07:58:04.144Z,988.98
2017-03-06T07:59:14.858Z,989.01
2017-03-06T08:00:25.563Z,988.97
2017-03-06T08:01:35.861Z,988.93
2017-03-06T08:02:46.180Z,988.97
2017-03-06T08:03:56.883Z,988.92
2017-03-06T08:05:07.587Z,989
2017-03-06T08:06:18.289Z,988.99
2017-03-06T08:07:29.003Z,989
2017-03-06T08:08:39.311Z,989
2017-03-06T08:09:50.008Z,988.99
2017-03-06T08:11:00.708Z,989.07
2017-03-06T08:12:11.416Z,988.99
2017-03-06T08:13:22.117Z,988.96
2017-03-06T08:14:32.409Z,989.01
2017-03-06T08:15:42.697Z,988.99
2017-03-06T08:16:53.012Z,989.01
2017-03-06T08:18:03.716Z,988.94
2017-03-06T08:19:14.049Z,988.99
2017-03-06T08:20:24.741Z,989.06
2017-03-06T08:21:35.447Z,989.06
2017-03-06T08:22:46.153Z,989.08
2017-03-06T08:23:56.840Z,989.04
2017-03-06T08:25:07.536Z,989.1
2017-03-06T08:26:18.246Z,989.11
2017-03-06T08:27:28.933Z,989.06
2017-03-06T08:28:39.665Z,989.11
2017-03-06T08:29:50.002Z,989.2
2017-03-06T08:31:00.298Z,989.22
2017-03-06T08:32:10.997Z,989.21
2017-03-06T08:33:21.715Z,989.2
2017-03-06T08:34:32.409Z,989.25
2017-03-06T08:35:43.135Z,989.25
2017-03-06T08:36:53.827Z,989.27
2017-03-06T08:38:04.518Z,989.2
2017-03-06T08:39:15.215Z,989.21
2017-03-06T08:40:25.906Z,989.23
2017-03-06T08:41:35.801Z,989.21
2017-03-06T08:42:46.514Z,989.31
2017-03-06T08:43:57.200Z,989.25
2017-03-06T08:45:07.893Z,989.25
2017-03-06T08:46:18.602Z,989.28
2017-03-06T08:47:29.318Z,989.3
2017-03-06T08:48:40.008Z,989.33
2017-03-06T08:49:50.709Z,989.31
2017-03-06T08:51:01.419Z,989.4
2017-03-06T08:52:12.134Z,989.39
2017-03-06T08:53:22.835Z,989.36
2017-03-06T08:54:33.545Z,989.33
2017-03-06T08:55:43.845Z,989.26
2017-03-06T08:56:54.160Z,989.27
2017-03-06T08:58:04.872Z,989.3
2017-03-06T08:59:15.174Z,989.25
2017-03-06T09:00:25.469Z,989.17
2017-03-06T09:01:36.186Z,989.16
2017-03-06T09:02:46.902Z,989.21
2017-03-06T09:03:57.207Z,989.24
2017-03-06T09:05:07.916Z,989.28
2017-03-06T09:06:18.600Z,989.18
2017-03-06T09:07:29.301Z,989.19
2017-03-06T09:08:39.617Z,989.17
2017-03-06T09:09:49.934Z,989.3
2017-03-06T09:11:00.230Z,989.38
2017-03-06T09:12:10.946Z,989.43
2017-03-06T09:13:21.652Z,989.36
2017-03-06T09:14:32.352Z,989.39
2017-03-06T09:15:42.648Z,989.31
2017-03-06T09:16:53.349Z,989.19
2017-03-06T09:18:04.053Z,989.2
2017-03-06T09:19:14.752Z,989.15
2017-03-06T09:20:25.463Z,989.06
2017-03-06T09:21:36.174Z,989.09
2017-03-06T09:22:46.898Z,989.33
2017-03-06T09:23:57.611Z,989.31
2017-03-06T09:25:08.352Z,989.48
2017-03-06T09:26:19.042Z,989.15
2017-03-06T09:27:31.900Z,989.2
2017-03-06T09:28:42.589Z,989.21
2017-03-06T09:29:52.912Z,989.23
2017-03-06T09:31:03.625Z,989.37
2017-03-06T09:32:14.336Z,989.48
2017-03-06T09:33:25.045Z,989.3
2017-03-06T09:34:35.751Z,989.33
2017-03-06T09:35:46.451Z,989.24
2017-03-06T09:36:57.150Z,989.4
2017-03-06T09:38:07.894Z,989.43
2017-03-06T09:39:18.231Z,989.41
2017-03-06T09:40:28.938Z,989.41
2017-03-06T09:41:39.637Z,989.47
2017-03-06T09:42:49.977Z,989.22
2017-03-06T09:44:00.688Z,989.36
2017-03-06T09:45:11.006Z,989.41
2017-03-06T09:46:21.307Z,989.32
2017-03-06T09:47:31.629Z,989.33
2017-03-06T09:48:41.927Z,989.34
2017-03-06T09:49:52.241Z,989.31
2017-03-06T09:51:02.556Z,989.21
2017-03-06T09:52:12.895Z,989.29
2017-03-06T09:53:23.592Z,989.39
2017-03-06T09:54:34.299Z,989.36
2017-03-06T09:55:44.995Z,989.33
2017-03-06T09:56:55.716Z,989.33
2017-03-06T09:58:06.421Z,989.23
2017-03-06T09:59:17.125Z,989.3
2017-03-06T10:00:27.844Z,989.3
2017-03-06T10:01:38.541Z,989.36
2017-03-06T10:02:48.866Z,989.35
2017-03-06T10:03:59.565Z,989.27
2017-03-06T10:05:10.268Z,989.29
2017-03-06T10:06:20.969Z,989.28
2017-03-06T10:07:31.685Z,989.2
2017-03-06T10:08:42.395Z,989.2
2017-03-06T10:09:53.117Z,989.28
2017-03-06T10:11:03.397Z,989.25
2017-03-06T10:12:14.100Z,989.23
2017-03-06T10:13:24.414Z,989.22
2017-03-06T10:14:35.106Z,989.32
2017-03-06T10:15:45.425Z,989.3
2017-03-06T10:16:55.754Z,989.33
2017-03-06T10:18:06.052Z,989.27
2017-03-06T10:19:16.353Z,989.34
2017-03-06T10:20:26.648Z,989.32
2017-03-06T10:21:37.342Z,989.25
2017-03-06T10:22:48.093Z,989.2
2017-03-06T10:23:58.922Z,989.24
2017-03-06T10:25:09.772Z,989.17
2017-03-06T10:26:20.573Z,989.23
2017-03-06T10:27:30.892Z,989.23
2017-03-06T10:28:41.580Z,989.26
2017-03-06T10:29:52.279Z,989.31
2017-03-06T10:31:03.000Z,989.28
2017-03-06T10:32:12.926Z,989.23
2017-03-06T10:33:23.225Z,989.27
2017-03-06T10:34:33.935Z,989.31
2017-03-06T10:35:44.631Z,989.34
2017-03-06T10:36:55.329Z,989.24
2017-03-06T10:38:05.639Z,989.26
2017-03-06T10:39:16.347Z,989.33
2017-03-06T10:40:27.064Z,989.28
2017-03-06T10:41:37.375Z,989.32
2017-03-06T10:42:47.691Z,989.28
2017-03-06T10:43:58.400Z,989.29
2017-03-06T10:45:09.086Z,989.37
2017-03-06T10:46:19.389Z,989.42
2017-03-06T10:47:30.103Z,989.36
2017-03-06T10:48:40.008Z,989.32
2017-03-06T10:49:50.721Z,989.36
2017-03-06T10:51:01.048Z,989.32
2017-03-06T10:52:11.352Z,989.31
2017-03-06T10:53:21.671Z,989.2
2017-03-06T10:54:31.982Z,989.11
2017-03-06T10:55:42.674Z,989.18
2017-03-06T10:56:53.410Z,989.18
2017-03-06T10:58:04.105Z,989.21
2017-03-06T10:59:14.839Z,989.19
2017-03-06T11:00:25.160Z,989.08
2017-03-06T11:01:35.874Z,989.08
2017-03-06T11:02:46.574Z,989.09
2017-03-06T11:03:56.894Z,989.21
2017-03-06T11:05:07.607Z,989.18
2017-03-06T11:06:18.318Z,989.18
2017-03-06T11:07:29.033Z,989.15
2017-03-06T11:08:39.748Z,989.18
2017-03-06T11:09:50.441Z,989.19
2017-03-06T11:11:01.155Z,989.08
2017-03-06T11:12:11.867Z,989.24
2017-03-06T11:13:22.565Z,989.37
2017-03-06T11:14:33.274Z,989.46
2017-03-06T11:15:43.967Z,989.36
2017-03-06T11:16:54.304Z,989.34
2017-03-06T11:18:04.622Z,989.24
2017-03-06T11:19:15.324Z,989.4
2017-03-06T11:20:26.054Z,989.34
2017-03-06T11:21:36.364Z,989.29
2017-03-06T11:22:47.097Z,989.5
2017-03-06T11:23:57.809Z,989.58
2017-03-06T11:25:08.145Z,989.62
2017-03-06T11:26:18.461Z,989.67
2017-03-06T11:27:28.771Z,989.76
2017-03-06T11:28:39.494Z,989.7
2017-03-06T11:29:50.224Z,989.53
2017-03-06T11:31:00.938Z,989.4
2017-03-06T11:32:11.644Z,989.48
2017-03-06T11:33:22.355Z,989.4
2017-03-06T11:34:33.062Z,989.34
2017-03-06T11:35:43.752Z,989.29
2017-03-06T11:36:54.062Z,989.16
2017-03-06T11:38:04.769Z,989.2
2017-03-06T11:39:15.477Z,989.14
2017-03-06T11:40:25.388Z,989.11
2017-03-06T11:41:36.117Z,989.16
2017-03-06T11:42:46.835Z,989.16
2017-03-06T11:43:57.531Z,989.14
2017-03-06T11:45:07.850Z,989.11
2017-03-06T11:46:18.152Z,989.13
2017-03-06T11:47:28.863Z,989.13
2017-03-06T11:48:39.579Z,989.17
2017-03-06T11:49:49.886Z,989.16
2017-03-06T11:51:00.609Z,989.15
2017-03-06T11:52:11.335Z,989.11
2017-03-06T11:53:22.044Z,989.23
2017-03-06T11:54:32.752Z,989.24
2017-03-06T11:55:43.452Z,989.22
2017-03-06T11:56:53.759Z,989.14
2017-03-06T11:58:04.470Z,989.18
2017-03-06T11:59:15.184Z,989.18
2017-03-06T12:00:25.482Z,989.25
2017-03-06T12:01:36.193Z,989.15
2017-03-06T12:02:46.893Z,989.18
2017-03-06T12:03:56.794Z,989.19
2017-03-06T12:05:07.502Z,989.12
2017-03-06T12:06:18.216Z,989.17
2017-03-06T12:07:28.919Z,989.13
2017-03-06T12:08:39.634Z,989.12
2017-03-06T12:09:49.938Z,989.12
2017-03-06T12:11:00.638Z,989.07
2017-03-06T12:12:11.359Z,989.04
2017-03-06T12:13:22.069Z,989.15
2017-03-06T12:14:32.794Z,988.97
2017-03-06T12:15:43.097Z,989.1
2017-03-06T12:16:53.801Z,989.03
2017-03-06T12:18:04.521Z,989.03
2017-03-06T12:19:14.847Z,989
2017-03-06T12:20:25.562Z,989.02
2017-03-06T12:21:36.256Z,989.01
2017-03-06T12:22:46.599Z,988.98
2017-03-06T12:23:57.328Z,988.99
2017-03-06T12:25:08.039Z,989.02
2017-03-06T12:26:18.355Z,989
2017-03-06T12:27:29.068Z,989.05
2017-03-06T12:28:39.776Z,989.03
2017-03-06T12:29:50.487Z,989.02
2017-03-06T12:31:00.791Z,988.94
2017-03-06T12:32:11.508Z,988.94
2017-03-06T12:33:22.223Z,988.85
2017-03-06T12:34:32.532Z,988.83
2017-03-06T12:35:43.238Z,988.9
2017-03-06T12:36:53.948Z,988.88
2017-03-06T12:38:04.684Z,988.87
2017-03-06T12:39:14.974Z,988.92
2017-03-06T12:40:25.692Z,988.98
2017-03-06T12:41:36.402Z,989.01
2017-03-06T12:42:46.730Z,988.98
2017-03-06T12:43:57.455Z,988.96
2017-03-06T12:45:08.164Z,988.95
2017-03-06T12:46:18.090Z,989.01
2017-03-06T12:47:28.404Z,989.02
2017-03-06T12:48:39.135Z,988.99
2017-03-06T12:49:49.446Z,989
2017-03-06T12:51:00.149Z,988.96
2017-03-06T12:52:10.961Z,988.92
2017-03-06T12:53:21.676Z,988.86
2017-03-06T12:54:31.971Z,988.89
2017-03-06T12:55:42.678Z,988.89
2017-03-06T12:56:52.606Z,988.95
2017-03-06T12:58:03.306Z,988.98
2017-03-06T12:59:13.624Z,989.06
2017-03-06T13:00:23.922Z,989.11
2017-03-06T13:01:33.829Z,989.46
2017-03-06T13:02:44.543Z,988.97
2017-03-06T13:03:54.896Z,989.23
2017-03-06T13:05:05.220Z,989.06
2017-03-06T13:06:15.922Z,989.21
2017-03-06T13:07:26.634Z,988.82
2017-03-06T13:08:37.351Z,989.44
2017-03-06T13:09:47.650Z,989.59
2017-03-06T13:10:57.952Z,989.39
2017-03-06T13:12:08.286Z,988.79
2017-03-06T13:13:19.021Z,988.98
2017-03-06T13:14:29.736Z,988.83
2017-03-06T13:15:40.448Z,988.93
2017-03-06T13:16:50.754Z,988.95
2017-03-06T13:18:01.464Z,988.94
2017-03-06T13:19:11.767Z,988.99
2017-03-06T13:20:22.062Z,988.99
2017-03-06T13:21:32.767Z,988.99
2017-03-06T13:22:43.085Z,988.9
2017-03-06T13:23:53.391Z,988.88
2017-03-06T13:25:04.111Z,989.07
2017-03-06T13:26:14.415Z,988.91
2017-03-06T13:27:25.132Z,988.85
2017-03-06T13:28:35.439Z,988.81
2017-03-06T13:29:45.759Z,988.78
2017-03-06T13:30:56.480Z,988.75
2017-03-06T13:32:06.774Z,988.76
2017-03-06T13:33:17.491Z,988.76
2017-03-06T13:34:28.196Z,988.84
2017-03-06T13:35:38.906Z,988.91
2017-03-06T13:36:48.847Z,989.2
2017-03-06T13:37:59.548Z,989.3
2017-03-06T13:39:10.267Z,989.24
2017-03-06T13:40:20.973Z,989.05
2017-03-06T13:41:31.684Z,988.97
2017-03-06T13:42:42.414Z,988.9
2017-03-06T13:43:53.118Z,988.92
2017-03-06T13:45:03.837Z,988.85
2017-03-06T13:46:14.530Z,988.84
2017-03-06T13:47:24.855Z,988.9
2017-03-06T13:48:35.575Z,988.83
2017-03-06T13:49:46.282Z,988.8
2017-03-06T13:50:56.979Z,988.75
2017-03-06T13:52:07.689Z,988.69
2017-03-06T13:53:18.000Z,988.69
2017-03-06T13:54:28.332Z,988.63
2017-03-06T13:55:39.062Z,988.8
2017-03-06T13:56:49.760Z,988.69
2017-03-06T13:58:00.482Z,988.64
2017-03-06T13:59:10.796Z,988.69
2017-03-06T14:00:21.514Z,988.63
2017-03-06T14:01:32.215Z,988.79
2017-03-06T14:02:42.917Z,988.75
2017-03-06T14:03:53.634Z,988.76
2017-03-06T14:05:04.331Z,988.64
2017-03-06T14:06:15.040Z,988.99
2017-03-06T14:07:25.737Z,988.97
2017-03-06T14:08:36.053Z,988.93
2017-03-06T14:09:45.973Z,988.89
2017-03-06T14:10:56.673Z,989.03
2017-03-06T14:12:07.393Z,989.41
2017-03-06T14:13:18.108Z,989.07
2017-03-06T14:14:28.822Z,988.87
2017-03-06T14:15:39.133Z,988.8
2017-03-06T14:16:49.864Z,988.87
2017-03-06T14:18:00.221Z,988.9
2017-03-06T14:19:10.917Z,988.95
2017-03-06T14:20:21.613Z,988.84
2017-03-06T14:21:32.318Z,988.82
2017-03-06T14:22:43.026Z,989
2017-03-06T14:23:53.750Z,988.63
2017-03-06T14:25:04.465Z,988.63
2017-03-06T14:26:15.180Z,988.62
2017-03-06T14:27:25.501Z,988.66
2017-03-06T14:28:36.223Z,988.62
2017-03-06T14:29:46.954Z,989.04
2017-03-06T14:30:57.654Z,988.85
2017-03-06T14:32:08.408Z,988.78
2017-03-06T14:33:19.125Z,988.82
2017-03-06T14:34:29.833Z,988.67
2017-03-06T14:35:40.555Z,988.57
2017-03-06T14:36:51.252Z,988.75
2017-03-06T14:38:01.971Z,988.62
2017-03-06T14:39:12.287Z,988.86
2017-03-06T14:40:22.621Z,988.75
2017-03-06T14:41:33.340Z,988.71
2017-03-06T14:42:44.041Z,988.78
2017-03-06T14:43:54.755Z,988.76
2017-03-06T14:45:05.467Z,988.83